Poulsbo, WA

6:13 PM PST on December 20, 2014 (GMT -0800)
Snohomish County | Change Station
CLOSE
Current Station
Airport
Location: Everett,
Elevation: 604 ft
Nearby Weather Stations

Elev 604 ft 47.91 °N, 122.28 °W | Updated 20 minutes ago

Overcast
Overcast
50 °F
Feels Like 50 °F
N
17
Wind Variable Wind from South
Gusts 28 mph

Today
High -- | Low -- °F
--% Chance of Precip.
Yesterday
High -- | Low -- °F
Precip. -- in
7:56 AM 4:20 PM
Waning Crescent, 1% visible
Pressure 29.43 in
Visibility 10.0 miles
Clouds Overcast 500 ft
Dew Point 48 °F
Humidity 93%
Rainfall 0.16 in
Snow Depth Not available.
UV 0 out of 12
Pollen .40 out of 12
Air Quality Not available.
Flu Activity Not available.
METAR KPAE 210153Z 17015G24KT 10SM OVC005 10/09 A2942 RMK AO2 RAB18E31 CIG 004V009 SLP965 P0001 T01000089

More Conditions Fewer Conditions

Pressure 29.43 in
Visibility 10.0 miles
Clouds Overcast 500 ft
Dew Point 48 °F
Humidity 93%
Rainfall 0.16 in
Snow Depth Not available.
UV 0 out of 12
Pollen .40 out of 12
Air Quality Not available.
Flu Activity Not available.
METAR KPAE 210153Z 17015G24KT 10SM OVC005 10/09 A2942 RMK AO2 RAB18E31 CIG 004V009 SLP965 P0001 T01000089

More Conditions Fewer Conditions

10-Day Weather Forecast

Almanac

Astronomy

Dec. 20, 2014 Rise Set
Actual Time
Civil Twilight
Nautical Twilight
Astronomical Twilight
Moon
Length of Visible Light
Length of Day
Tomorrow will be .
, % of the Moon is Illuminated

Today's Extremes

State Highs State Lows

Community

WunderPhotos

Upload Photos

1,779,346 photos uploaded!

WunderBlogs® & News

Nearby

Air Quality

  Air Quality AQ Index Pollutant
Not available.

Snow Depth

Station Depth Elevation

Earthquake Activity

City Distance Mag. Time & Date
Minimum magnitude displayed is 2.5.

Coastal Water Temperatures

Place Temperature

Nearby Weather Stations